Africa, Pennsylvania
Current Conditions -  °F | °C
As of 11:53 PM on Sunday 21 Dec 2014 (Local Time) from KHGR Reporting Station
Clear Clear  
Wind Chill: -3°   Ceiling: Unl
Heat Index: -3°   Visibility: 8mi
Dew Point: -7°   Wind: 0mph
Humidity: 75%   Direction: NA
Pressure: 30.3"   Gusts: NA
Location:  39.8035°N, 77.9346°W
Report Text: KHGR 220453Z AUTO 00000KT 8SM CLR M03/M07 A3030 RMK AO2 SLP278 T10331072 400391033
Loading
Personal Weather Stations






























Interactive Weather Map New forecast layout! Learn more

10-Day Weather Forecast

Advertisements
Track Severe Weather on mobile